Amherst Junction, Wisconsin
Current Conditions -  °F | °C
As of 5:55 PM on Thursday 27 Nov 2014 (Local Time) from KSTE Reporting Station
Clear Clear  
Wind Chill:   Ceiling: Unl
Heat Index:   Visibility: 10mi
Dew Point: -1°   Wind: 0mph
Humidity: 80%   Direction: NA
Pressure: 30.36"   Gusts: NA
Location:  44.47°N, 89.31°W
Report Text: KSTE 272355Z AUTO 00000KT 10SM CLR M16/M18 A3036 RMK AO2 T11571185 11103 21157
Loading
Personal Weather Stations






























Interactive Weather Map New forecast layout! Learn more

10-Day Weather Forecast

Advertisements
Track Severe Weather on mobile